Time;durP1;ratioP1;P1;durP2;ratioP2;P2;SDS_P1;SDS_P2;PMS_P1;PMS_P2;Temp;Humidity;BMP_temperature;BMP_pressure;BME280_temperature;BME280_humidity;BME280_pressure;Samples;Min_cycle;Max_cycle;Signal;HPM_P1;HPM_P2
2021/03/26 00:01:11;;;;;;;15.23;7.00;;;;;;;5.06;73.62;99563.13;5052823;28;20073;-85
2021/03/26 00:03:41;;;;;;;13.32;7.05;;;;;;;5.12;73.07;99561.72;5051159;28;20412;-85
2021/03/26 00:06:11;;;;;;;17.58;7.53;;;;;;;5.02;73.96;99577.03;5052166;28;20068;-85
2021/03/26 00:08:41;;;;;;;13.68;7.10;;;;;;;4.86;73.91;99548.75;5052523;28;20098;-85
2021/03/26 00:11:10;;;;;;;14.60;7.25;;;;;;;4.91;73.93;99561.84;5052491;28;20068;-85
2021/03/26 00:13:37;;;;;;;17.93;6.77;;;;;;;5.04;73.32;99578.56;5052904;28;20055;-84
2021/03/26 00:16:05;;;;;;;11.88;7.00;;;;;;;5.01;73.24;99565.38;5051634;28;20300;-85
2021/03/26 00:18:31;;;;;;;15.60;7.25;;;;;;;4.72;73.83;99550.00;5051097;28;20056;-84
2021/03/26 00:20:58;;;;;;;11.75;6.47;;;;;;;4.67;74.49;99570.28;5041682;28;20046;-85
2021/03/26 00:23:27;;;;;;;15.52;7.63;;;;;;;4.68;73.97;99550.44;5032831;28;20046;-85
2021/03/26 00:25:55;;;;;;;17.73;7.05;;;;;;;4.67;74.60;99572.97;5034340;28;20489;-85
2021/03/26 00:28:24;;;;;;;14.00;6.75;;;;;;;4.68;74.54;99563.88;5043725;28;20053;-85
2021/03/26 00:30:51;;;;;;;13.85;6.47;;;;;;;4.73;74.47;99556.25;5052243;28;20072;-85
2021/03/26 00:33:21;;;;;;;10.45;6.40;;;;;;;4.63;74.21;99550.84;5052292;28;20149;-85
2021/03/26 00:35:48;;;;;;;10.52;6.43;;;;;;;4.55;74.84;99561.47;5051799;28;20132;-85
2021/03/26 00:38:15;;;;;;;11.68;6.30;;;;;;;4.63;74.79;99576.94;5036524;28;20053;-85
2021/03/26 00:40:43;;;;;;;12.98;6.30;;;;;;;4.33;75.17;99552.56;5032311;28;20056;-85
2021/03/26 00:43:09;;;;;;;11.60;6.15;;;;;;;4.30;75.48;99549.31;5051096;28;20061;-85
2021/03/26 00:45:37;;;;;;;12.15;6.30;;;;;;;4.54;75.45;99578.59;5055773;28;20056;-85
2021/03/26 00:48:06;;;;;;;11.82;6.47;;;;;;;4.43;75.21;99549.94;5056030;28;20048;-85
2021/03/26 00:50:35;;;;;;;14.65;7.15;;;;;;;4.44;75.80;99565.06;5056009;28;20136;-85
2021/03/26 00:53:10;;;;;;;11.98;6.57;;;;;;;4.56;75.98;99571.22;5056133;28;20435;-84
2021/03/26 00:55:37;;;;;;;11.80;6.07;;;;;;;4.67;74.98;99546.03;5055520;28;20057;-85
2021/03/26 00:58:07;;;;;;;14.25;6.57;;;;;;;4.52;75.65;99570.66;5056311;28;20057;-85
2021/03/26 01:00:36;;;;;;;15.35;7.35;;;;;;;4.38;76.25;99546.78;5052829;28;20059;-85
2021/03/26 01:03:04;;;;;;;19.42;6.85;;;;;;;4.58;75.53;99548.56;5052980;28;20053;-84
2021/03/26 01:05:32;;;;;;;13.18;6.60;;;;;;;4.66;75.16;99552.41;5054915;28;20052;-84
2021/03/26 01:07:59;;;;;;;15.02;6.93;;;;;;;4.64;75.37;99557.06;5055518;28;20045;-85
2021/03/26 01:10:28;;;;;;;19.27;7.68;;;;;;;4.71;74.88;99566.31;5055518;28;20049;-84
2021/03/26 01:12:55;;;;;;;13.52;6.90;;;;;;;4.22;76.15;99548.13;5054981;28;20064;-84
2021/03/26 01:16:21;;;;;;;14.77;7.30;;;;;;;4.45;76.01;99564.09;5054478;28;20083;-84
2021/03/26 01:18:48;;;;;;;15.05;7.75;;;;;;;4.21;77.11;99569.81;5044524;28;20063;-84
2021/03/26 01:21:22;;;;;;;17.95;8.45;;;;;;;4.07;77.77;99566.47;5035485;28;20383;-84
2021/03/26 01:23:49;;;;;;;16.08;7.72;;;;;;;4.05;77.90;99555.00;5035672;28;20053;-85
2021/03/26 01:26:16;;;;;;;19.67;8.52;;;;;;;4.14;77.22;99547.97;5034972;28;20133;-84
2021/03/26 01:28:42;;;;;;;15.15;8.32;;;;;;;4.14;76.50;99552.47;5045934;28;20053;-84
2021/03/26 01:31:17;;;;;;;12.40;7.18;;;;;;;4.07;75.45;99536.88;5055114;28;20397;-85
2021/03/26 01:33:45;;;;;;;16.58;8.20;;;;;;;3.94;75.42;99543.47;5046952;28;20060;-84
2021/03/26 01:36:13;;;;;;;14.40;7.32;;;;;;;3.90;76.08;99557.19;5047772;28;20059;-84
2021/03/26 01:38:40;;;;;;;11.75;7.28;;;;;;;3.65;76.44;99546.84;5054152;28;20053;-83
2021/03/26 01:41:09;;;;;;;15.48;7.47;;;;;;;3.44;77.53;99542.28;5055135;28;20048;-84
2021/03/26 01:43:39;;;;;;;12.60;7.37;;;;;;;3.55;77.71;99557.50;5042245;28;20076;-84
2021/03/26 01:46:08;;;;;;;14.57;7.97;;;;;;;3.49;77.78;99536.53;5054661;28;20048;-84
2021/03/26 01:48:39;;;;;;;12.40;7.20;;;;;;;3.49;77.58;99550.84;5054166;28;20072;-84
2021/03/26 01:51:08;;;;;;;17.27;9.07;;;;;;;3.46;78.07;99543.03;5036476;28;20050;-84
2021/03/26 01:53:36;;;;;;;14.93;8.35;;;;;;;3.44;77.79;99536.91;5052966;28;20049;-84
2021/03/26 01:56:04;;;;;;;15.25;7.78;;;;;;;3.41;78.25;99555.16;5053903;28;20345;-84
2021/03/26 01:58:36;;;;;;;18.83;6.95;;;;;;;3.30;77.79;99529.19;5054526;28;20489;-84
2021/03/26 02:01:05;;;;;;;13.02;7.47;;;;;;;3.28;78.26;99536.50;5054868;28;20056;-84
2021/03/26 02:03:38;;;;;;;18.08;8.35;;;;;;;3.33;77.00;99528.91;5054488;28;20049;-84
2021/03/26 02:06:08;;;;;;;13.00;7.95;;;;;;;3.29;77.42;99538.22;5036256;28;20401;-84
2021/03/26 02:08:40;;;;;;;13.00;7.75;;;;;;;3.18;76.95;99520.31;5054462;28;20055;-84
2021/03/26 02:11:13;;;;;;;13.05;7.53;;;;;;;3.18;77.43;99526.53;5053557;28;20049;-84
2021/03/26 02:13:41;;;;;;;14.85;7.65;;;;;;;2.90;79.22;99536.03;5034432;28;20529;-84
2021/03/26 02:16:09;;;;;;;14.45;8.18;;;;;;;3.02;78.98;99531.47;5042708;28;20095;-84
2021/03/26 02:18:39;;;;;;;12.45;7.53;;;;;;;3.03;79.35;99519.75;5044520;28;20056;-84
2021/03/26 02:21:09;;;;;;;13.85;8.55;;;;;;;3.12;79.24;99510.09;5054182;28;20049;-84
2021/03/26 02:23:38;;;;;;;16.85;7.90;;;;;;;3.32;78.40;99516.47;5054291;28;20123;-84
2021/03/26 02:26:11;;;;;;;10.52;7.05;;;;;;;3.11;79.35;99538.78;5053401;28;20052;-84
2021/03/26 02:28:38;;;;;;;14.90;8.15;;;;;;;3.14;78.58;99541.19;5053461;28;20132;-84
2021/03/26 02:31:05;;;;;;;16.10;7.75;;;;;;;3.08;78.82;99528.28;5054062;28;20491;-84
2021/03/26 02:33:45;;;;;;;13.57;7.45;;;;;;;3.18;78.60;99539.97;5049092;28;20049;-84
2021/03/26 02:36:37;;;;;;;15.60;6.72;;;;;;;3.02;79.23;99515.38;5052327;28;20132;-84
2021/03/26 02:39:12;;;;;;;16.25;7.50;;;;;;;3.10;78.52;99520.97;5031715;28;20053;-84
2021/03/26 02:41:41;;;;;;;17.52;8.75;;;;;;;3.06;78.43;99535.63;5038887;28;20045;-84
2021/03/26 02:44:19;;;;;;;16.05;8.60;;;;;;;2.90;78.84;99527.13;5053658;28;20052;-84
2021/03/26 02:46:54;;;;;;;9.32;6.38;;;;;;;2.67;79.14;99511.09;5053850;28;20060;-84
2021/03/26 02:49:26;;;;;;;17.10;8.20;;;;;;;2.45;80.31;99515.53;5035412;28;20045;-84
2021/03/26 02:52:01;;;;;;;15.32;8.23;;;;;;;2.51;80.20;99530.25;5034112;28;20064;-84
2021/03/26 02:54:35;;;;;;;13.55;7.20;;;;;;;2.53;80.44;99538.19;5033218;28;20061;-84
2021/03/26 02:57:07;;;;;;;13.98;7.95;;;;;;;2.50;80.76;99538.44;5046430;28;20508;-84
2021/03/26 02:59:54;;;;;;;17.98;8.13;;;;;;;2.41;80.98;99542.72;5047046;28;20104;-83
2021/03/26 03:06:18;;;;;;;;;;;;;;;;;;;;;
2021/03/26 03:12:38;;;;;;;15.00;7.45;;;;;;;2.25;81.75;99537.75;5045461;28;20060;-85
2021/03/26 03:15:12;;;;;;;18.70;8.95;;;;;;;2.10;82.36;99516.50;5046000;28;20049;-84
2021/03/26 03:17:45;;;;;;;16.92;7.90;;;;;;;2.04;83.09;99514.31;5037588;28;20049;-84
2021/03/26 03:20:20;;;;;;;15.25;7.80;;;;;;;2.18;82.32;99523.94;5047659;28;20053;-84
2021/03/26 03:22:55;;;;;;;13.30;7.28;;;;;;;2.30;81.63;99514.94;5048859;28;20056;-84
2021/03/26 03:25:25;;;;;;;14.82;7.60;;;;;;;2.16;80.88;99511.66;5052733;28;20140;-84
2021/03/26 03:28:07;;;;;;;11.98;7.07;;;;;;;2.22;81.92;99520.06;5051240;28;20076;-84
2021/03/26 03:30:44;;;;;;;13.13;6.97;;;;;;;2.33;82.25;99534.44;5035945;28;20053;-84
2021/03/26 03:33:18;;;;;;;14.35;7.07;;;;;;;2.31;81.96;99518.47;5051362;28;20132;-84
2021/03/26 03:35:51;;;;;;;14.65;6.63;;;;;;;2.23;81.95;99518.22;5033832;28;20050;-85
2021/03/26 03:38:32;;;;;;;15.70;7.20;;;;;;;2.27;81.83;99509.81;5035380;28;20065;-85
2021/03/26 03:41:02;;;;;;;13.57;8.15;;;;;;;2.47;82.12;99510.88;5052441;28;20048;-85
2021/03/26 03:43:36;;;;;;;13.52;8.30;;;;;;;2.57;80.59;99519.03;5051435;28;20052;-85
2021/03/26 03:46:08;;;;;;;18.13;7.30;;;;;;;2.39;80.19;99509.78;5051330;28;20511;-85
2021/03/26 03:48:41;;;;;;;11.90;7.43;;;;;;;2.16;81.07;99525.91;5039840;28;20080;-85
2021/03/26 03:51:13;;;;;;;10.98;6.53;;;;;;;1.94;81.19;99514.22;5051662;28;20045;-85
2021/03/26 03:53:43;;;;;;;18.38;8.38;;;;;;;2.02;82.38;99513.59;5049357;28;20049;-84
2021/03/26 03:56:19;;;;;;;13.05;7.93;;;;;;;2.19;82.04;99516.78;5051274;28;20088;-84
2021/03/26 03:58:54;;;;;;;16.35;7.85;;;;;;;2.11;81.02;99491.41;5052403;28;20053;-85
2021/03/26 04:01:26;;;;;;;22.05;8.45;;;;;;;2.03;81.50;99512.63;5052213;28;20060;-85
2021/03/26 04:03:58;;;;;;;13.02;7.85;;;;;;;2.12;81.54;99529.81;5051476;28;20057;-85
2021/03/26 04:06:35;;;;;;;11.70;6.82;;;;;;;1.91;81.84;99516.25;5051039;28;20056;-85
2021/03/26 04:09:05;;;;;;;15.00;7.60;;;;;;;1.85;82.32;99511.38;5031945;28;20081;-85
2021/03/26 04:11:37;;;;;;;15.40;7.85;;;;;;;2.00;82.86;99526.25;5050834;28;20057;-84
2021/03/26 04:14:09;;;;;;;12.18;7.53;;;;;;;1.98;82.63;99509.44;5051763;28;20052;-85
2021/03/26 04:16:37;;;;;;;12.48;7.30;;;;;;;2.12;82.54;99516.38;5054399;28;20049;-85
2021/03/26 04:19:09;;;;;;;13.32;8.18;;;;;;;2.10;81.96;99491.53;5050766;28;20107;-84
2021/03/26 04:21:40;;;;;;;15.10;7.75;;;;;;;2.13;82.66;99505.53;5055007;28;20048;-85
2021/03/26 04:24:13;;;;;;;16.08;7.82;;;;;;;2.15;82.64;99500.06;5049914;28;20049;-85
2021/03/26 04:26:45;;;;;;;15.13;8.60;;;;;;;2.29;81.30;99510.53;5035946;28;20049;-85
2021/03/26 04:29:19;;;;;;;15.13;8.85;;;;;;;2.23;81.71;99500.31;5033886;28;20100;-85
2021/03/26 04:31:52;;;;;;;13.48;9.20;;;;;;;2.38;81.63;99518.81;5035230;28;20132;-85
2021/03/26 04:34:18;;;;;;;15.55;8.95;;;;;;;2.40;81.41;99490.88;5041629;28;20618;-85
2021/03/26 04:37:07;;;;;;;12.18;8.13;;;;;;;2.49;81.57;99500.03;5054867;28;20057;-85
2021/03/26 04:39:38;;;;;;;13.88;7.75;;;;;;;2.44;81.05;99510.28;5055130;28;20056;-85
2021/03/26 04:42:09;;;;;;;18.70;8.63;;;;;;;2.34;81.91;99496.75;5042719;28;20083;-85
2021/03/26 04:44:47;;;;;;;14.93;8.05;;;;;;;2.32;81.43;99496.03;5054017;28;20045;-85
2021/03/26 04:47:21;;;;;;;22.58;9.18;;;;;;;2.39;82.27;99513.31;5048832;28;20136;-85
2021/03/26 04:49:55;;;;;;;17.05;9.93;;;;;;;2.46;82.49;99527.09;5055117;28;20483;-85
2021/03/26 04:52:26;;;;;;;15.07;9.57;;;;;;;2.46;82.60;99508.31;5054989;28;20075;-85
2021/03/26 04:55:01;;;;;;;12.18;7.95;;;;;;;2.33;82.63;99492.34;5054010;28;20052;-85
2021/03/26 04:57:32;;;;;;;19.67;8.07;;;;;;;2.37;82.60;99496.50;5053882;28;20045;-85
2021/03/26 05:00:08;;;;;;;15.88;9.10;;;;;;;2.44;82.38;99494.19;5053327;28;20582;-85
2021/03/26 05:02:38;;;;;;;14.55;8.00;;;;;;;2.56;81.98;99511.09;5053096;28;20416;-85
2021/03/26 05:05:07;;;;;;;15.82;8.20;;;;;;;2.42;81.39;99502.34;5038556;28;20328;-85
2021/03/26 05:07:38;;;;;;;15.63;8.35;;;;;;;2.13;81.71;99480.56;5042914;28;20111;-85
2021/03/26 05:10:10;;;;;;;15.65;7.80;;;;;;;2.35;81.49;99487.72;5044915;28;20047;-85
2021/03/26 05:12:43;;;;;;;13.25;7.88;;;;;;;2.37;81.56;99488.44;5052884;28;20516;-85
2021/03/26 05:15:16;;;;;;;20.38;8.43;;;;;;;2.13;82.18;99504.69;5046074;28;20543;-86
2021/03/26 05:17:48;;;;;;;14.82;8.60;;;;;;;2.13;82.00;99505.53;5038261;28;20053;-85
2021/03/26 05:20:23;;;;;;;16.20;7.63;;;;;;;2.35;81.41;99503.84;5052274;28;20059;-85
2021/03/26 05:23:00;;;;;;;16.90;7.47;;;;;;;2.18;81.40;99483.72;5053864;28;20053;-85
2021/03/26 05:25:31;;;;;;;14.98;8.50;;;;;;;2.07;83.03;99494.47;5042736;28;20115;-85
2021/03/26 05:28:00;;;;;;;16.48;8.00;;;;;;;2.29;81.81;99498.97;5048257;28;20122;-85
2021/03/26 05:30:39;;;;;;;15.15;8.63;;;;;;;2.13;81.32;99465.31;5052764;28;20215;-85
2021/03/26 05:33:19;;;;;;;12.87;7.90;;;;;;;2.20;82.08;99510.41;5053000;28;20060;-85
2021/03/26 05:35:50;;;;;;;;;;;;;;;2.19;82.05;99498.00;5048047;28;20292;-85
2021/03/26 05:38:24;;;;;;;17.20;8.00;;;;;;;2.24;81.71;99488.59;5043290;28;19977;-85
2021/03/26 05:41:14;;;;;;;17.92;8.25;;;;;;;2.21;81.46;99494.19;5053424;28;20049;-85
2021/03/26 05:44:05;;;;;;;19.17;7.75;;;;;;;2.14;82.21;99503.72;5040474;28;20067;-85
2021/03/26 05:46:55;;;;;;;13.63;7.47;;;;;;;2.22;81.51;99482.50;5052890;28;20059;-85
2021/03/26 05:49:34;;;;;;;14.70;7.82;;;;;;;2.03;81.65;99471.53;5049886;28;20102;-85
2021/03/26 05:55:58;;;;;;;;;;;;;;;;;;;;;
2021/03/26 05:58:43;;;;;;;13.43;7.57;;;;;;;2.36;82.08;99485.88;5031582;28;20424;-84
2021/03/26 06:01:22;;;;;;;14.30;7.35;;;;;;;2.13;82.38;99472.50;5050058;28;20049;-84
2021/03/26 06:04:19;;;;;;;16.25;8.90;;;;;;;2.31;82.76;99486.25;5049556;28;20405;-84
2021/03/26 06:07:17;;;;;;;12.27;7.18;;;;;;;2.68;81.69;99499.38;4995772;28;20046;-84
2021/03/26 06:10:22;;;;;;;13.82;7.85;;;;;;;2.97;80.42;99483.53;5044191;28;20053;-83
2021/03/26 06:13:14;;;;;;;22.67;7.72;;;;;;;3.36;79.05;99472.22;5047170;28;20065;-84
2021/03/26 06:15:52;;;;;;;23.23;8.65;;;;;;;3.78;78.22;99488.31;5049387;28;20130;-84
2021/03/26 06:18:34;;;;;;;18.90;7.53;;;;;;;3.94;77.88;99500.44;5040545;28;20378;-84
2021/03/26 06:21:24;;;;;;;16.25;7.88;;;;;;;4.09;76.74;99509.84;5051057;28;20056;-84
2021/03/26 06:24:26;;;;;;;11.50;7.43;;;;;;;4.23;76.73;99487.06;5050210;28;20098;-84
2021/03/26 06:27:11;;;;;;;19.60;8.15;;;;;;;4.33;76.37;99489.81;5052826;28;20393;-84
2021/03/26 06:29:57;;;;;;;21.75;9.25;;;;;;;4.07;76.81;99496.53;5045488;28;20588;-84
2021/03/26 06:33:07;;;;;;;19.38;8.43;;;;;;;4.07;77.42;99507.28;5047179;28;20054;-85
2021/03/26 06:36:01;;;;;;;17.08;8.65;;;;;;;4.14;77.90;99517.50;5022115;28;20138;-84
2021/03/26 06:38:57;;;;;;;23.27;8.98;;;;;;;4.14;78.16;99499.53;5037934;28;20089;-85
2021/03/26 06:41:38;;;;;;;21.15;8.65;;;;;;;4.20;77.76;99503.50;5034488;28;20054;-84
2021/03/26 06:44:39;;;;;;;15.43;8.43;;;;;;;4.07;78.07;99495.69;5043875;28;20333;-81
2021/03/26 06:47:19;;;;;;;21.10;8.27;;;;;;;4.04;79.32;99495.94;5041379;28;20523;-83
2021/03/26 06:50:04;;;;;;;17.92;8.38;;;;;;;4.22;79.65;99507.78;5049963;28;20041;-84
2021/03/26 06:52:57;;;;;;;14.55;7.47;;;;;;;4.23;79.68;99508.59;5051382;28;20124;-80
2021/03/26 06:55:40;;;;;;;16.70;8.73;;;;;;;4.40;79.48;99493.66;5042875;28;20052;-81
2021/03/26 06:58:36;;;;;;;21.92;9.73;;;;;;;4.84;77.63;99485.25;5045682;28;20045;-81
2021/03/26 07:01:27;;;;;;;14.30;7.45;;;;;;;5.43;77.43;99499.56;5053770;28;20044;-81
2021/03/26 07:04:29;;;;;;;21.20;8.73;;;;;;;5.69;76.29;99494.44;5015143;28;20053;-80
2021/03/26 07:07:43;;;;;;;15.40;9.35;;;;;;;5.79;74.28;99500.63;5046275;28;20049;-83
2021/03/26 07:10:44;;;;;;;20.80;9.75;;;;;;;5.75;75.11;99498.38;4968806;28;20113;-84
2021/03/26 07:13:39;;;;;;;13.50;8.10;;;;;;;5.95;74.52;99497.31;5040254;28;20124;-84
2021/03/26 07:16:41;;;;;;;14.77;8.52;;;;;;;6.15;74.13;99481.09;5047390;28;20045;-84
2021/03/26 07:19:38;;;;;;;29.95;9.68;;;;;;;6.53;74.05;99495.41;5050476;28;20127;-84
2021/03/26 07:25:35;;;;;;;22.33;8.90;;;;;;;6.89;73.30;99506.25;5036767;28;20110;-84
2021/03/26 07:28:31;;;;;;;17.50;8.57;;;;;;;7.35;72.76;99504.34;5050626;28;20072;-84
2021/03/26 07:31:29;;;;;;;17.80;8.75;;;;;;;7.35;73.18;99482.72;5050334;28;20084;-85
2021/03/26 07:34:07;;;;;;;22.42;9.00;;;;;;;7.64;72.63;99467.19;5049428;28;20132;-84
2021/03/26 07:36:46;;;;;;;18.00;8.65;;;;;;;7.86;71.73;99479.34;5046217;28;20401;-85
2021/03/26 07:39:39;;;;;;;15.20;8.93;;;;;;;8.02;70.61;99484.84;5050949;28;20091;-85
2021/03/26 07:42:17;;;;;;;20.13;8.88;;;;;;;8.37;70.18;99464.03;5044639;28;20053;-85
2021/03/26 07:45:17;;;;;;;24.33;8.45;;;;;;;8.72;69.17;99466.72;5050181;28;20053;-85
2021/03/26 07:48:17;;;;;;;;;;;;;;;8.88;68.51;99491.16;5018007;28;20497;-84
2021/03/26 07:50:56;;;;;;;17.67;7.35;;;;;;;8.64;68.26;99472.94;5008416;28;19921;-85
2021/03/26 07:53:55;;;;;;;21.33;9.50;;;;;;;9.07;69.46;99483.75;4997238;28;20128;-85
2021/03/26 07:56:55;;;;;;;14.80;9.48;;;;;;;9.16;67.55;99459.16;5027840;28;20051;-85
2021/03/26 07:59:57;;;;;;;15.65;7.97;;;;;;;9.21;67.65;99473.06;5052873;28;20095;-85
2021/03/26 08:02:53;;;;;;;19.63;8.02;;;;;;;9.35;67.33;99457.97;5051205;28;20471;-85
2021/03/26 08:08:40;;;;;;;;;;;;;;;9.46;64.77;99472.22;5049540;28;20064;-85
2021/03/26 08:11:33;;;;;;;15.55;8.27;;;;;;;9.56;64.92;99465.59;5050514;28;19920;-86
2021/03/26 08:14:44;;;;;;;20.48;8.52;;;;;;;9.56;64.47;99459.34;5050904;28;20068;-84
2021/03/26 08:17:34;;;;;;;14.52;8.00;;;;;;;9.85;65.25;99458.78;5049928;28;20049;-85
2021/03/26 08:20:14;;;;;;;23.88;8.48;;;;;;;10.27;63.91;99483.97;5041126;28;20502;-85
2021/03/26 08:22:48;;;;;;;;;;;;;;;10.35;63.53;99483.94;5042146;28;20049;-83
2021/03/26 08:25:40;;;;;;;16.40;8.88;;;;;;;10.41;63.29;99460.66;5039163;28;19932;-84
2021/03/26 08:28:48;;;;;;;18.65;8.98;;;;;;;10.45;63.40;99462.84;5031758;28;20108;-84
2021/03/26 08:31:58;;;;;;;18.60;8.55;;;;;;;10.74;61.90;99476.81;5045737;28;20045;-84
2021/03/26 08:35:18;;;;;;;14.35;8.45;;;;;;;10.73;63.04;99475.94;5047123;28;20057;-85
2021/03/26 08:37:51;;;;;;;;;;;;;;;10.69;60.38;99477.34;5048175;28;20088;-84
2021/03/26 08:41:23;;;;;;;17.10;8.27;;;;;;;10.86;60.32;99475.38;5050592;28;19928;-85
2021/03/26 08:43:53;;;;;;;19.35;8.02;;;;;;;11.00;59.04;99452.00;5025354;28;20485;-84
2021/03/26 08:46:25;;;;;;;21.42;8.40;;;;;;;11.03;59.89;99453.50;5042326;28;20049;-85
2021/03/26 08:49:03;;;;;;;14.30;7.78;;;;;;;11.31;59.26;99448.38;5047499;28;20053;-85
2021/03/26 08:52:06;;;;;;;20.40;8.48;;;;;;;11.59;57.78;99454.09;5049138;28;20049;-85
2021/03/26 08:55:08;;;;;;;14.65;8.15;;;;;;;11.79;56.55;99469.91;5048965;28;20516;-85
2021/03/26 08:57:47;;;;;;;18.85;8.20;;;;;;;11.43;57.23;99454.22;5026551;28;20045;-85
2021/03/26 09:00:33;;;;;;;14.55;8.52;;;;;;;11.68;58.27;99468.44;5049986;28;20052;-85
2021/03/26 09:03:28;;;;;;;12.20;7.72;;;;;;;11.29;57.77;99443.13;5049862;28;20073;-85
2021/03/26 09:06:21;;;;;;;18.60;8.60;;;;;;;11.61;57.61;99449.28;5043208;28;20247;-84
2021/03/26 09:09:23;;;;;;;13.05;7.15;;;;;;;11.18;57.72;99439.97;5038633;28;20049;-84
2021/03/26 09:12:17;;;;;;;17.38;7.68;;;;;;;11.46;57.62;99443.81;5047024;28;20045;-84
2021/03/26 09:15:05;;;;;;;19.80;7.70;;;;;;;11.57;56.50;99450.69;5048694;28;20055;-85
2021/03/26 09:17:40;;;;;;;12.68;7.20;;;;;;;11.57;57.59;99455.28;5039192;28;20052;-84
2021/03/26 09:20:21;;;;;;;20.25;8.35;;;;;;;11.61;56.44;99438.41;5049778;28;20495;-85
2021/03/26 09:23:28;;;;;;;13.30;6.93;;;;;;;11.65;56.61;99457.94;5036335;28;20053;-85
2021/03/26 09:25:58;;;;;;;18.80;6.47;;;;;;;11.43;56.05;99433.28;5047380;28;20060;-83
2021/03/26 09:28:33;;;;;;;13.30;6.85;;;;;;;11.74;56.34;99439.63;5045727;28;20049;-86
2021/03/26 09:31:07;;;;;;;22.27;6.70;;;;;;;11.94;55.13;99437.22;5048172;28;20209;-85
2021/03/26 09:33:36;;;;;;;17.33;7.45;;;;;;;12.41;54.82;99436.00;5039261;28;20045;-85
2021/03/26 09:36:06;;;;;;;12.60;7.47;;;;;;;12.58;54.33;99409.34;5048720;28;20044;-85
2021/03/26 09:38:40;;;;;;;12.20;6.07;;;;;;;12.99;53.22;99427.88;5051420;28;20057;-83
2021/03/26 09:41:21;;;;;;;12.43;6.70;;;;;;;13.18;51.77;99431.81;5051907;28;20053;-84
2021/03/26 09:43:57;;;;;;;11.50;5.47;;;;;;;13.05;50.22;99407.13;5037439;28;20045;-84
2021/03/26 09:46:31;;;;;;;12.30;5.75;;;;;;;13.00;50.23;99421.34;5050694;28;20099;-84
2021/03/26 09:49:14;;;;;;;14.15;6.88;;;;;;;13.16;49.79;99411.22;5061069;28;20063;-84
2021/03/26 09:51:46;;;;;;;12.43;6.38;;;;;;;13.59;51.59;99413.91;5051932;28;20053;-84
2021/03/26 09:54:16;;;;;;;12.55;6.45;;;;;;;13.83;49.50;99414.53;5050504;28;20501;-85
2021/03/26 09:56:48;;;;;;;18.20;6.93;;;;;;;13.53;48.60;99392.88;5039885;28;20080;-85
2021/03/26 09:59:27;;;;;;;12.40;6.55;;;;;;;13.47;48.80;99386.31;5049820;28;20135;-84
2021/03/26 10:02:15;;;;;;;15.53;6.43;;;;;;;13.59;49.96;99400.25;5052516;28;20049;-86
2021/03/26 10:04:51;;;;;;;13.27;6.57;;;;;;;13.63;51.75;99398.84;5053904;28;20394;-82
2021/03/26 10:07:29;;;;;;;11.18;6.28;;;;;;;13.39;50.92;99372.81;5048764;28;20550;-84
2021/03/26 10:12:47;;;;;;;17.02;7.50;;;;;;;13.50;50.64;99368.69;5053602;28;20052;-84
2021/03/26 10:15:21;;;;;;;;;;;;;;;13.64;50.09;99384.13;5053394;28;20493;-85
2021/03/26 10:18:05;;;;;;;14.15;6.85;;;;;;;13.54;48.86;99373.56;5054337;28;20272;-84
2021/03/26 10:20:38;;;;;;;10.13;6.22;;;;;;;13.52;48.80;99353.78;5053659;28;20053;-83
2021/03/26 10:23:27;;;;;;;13.18;7.85;;;;;;;13.80;49.79;99363.84;5050035;28;20124;-84
2021/03/26 10:26:03;;;;;;;10.82;7.18;;;;;;;13.83;49.61;99368.06;5050915;28;20078;-84
2021/03/26 10:29:04;;;;;;;12.55;7.03;;;;;;;13.86;48.72;99343.91;5052817;28;20580;-83
2021/03/26 10:31:39;;;;;;;20.08;7.28;;;;;;;13.75;47.67;99345.31;5045521;28;20295;-84
2021/03/26 10:34:09;;;;;;;15.77;7.78;;;;;;;13.87;48.43;99331.09;5049718;28;20412;-84
2021/03/26 10:37:03;;;;;;;20.63;6.97;;;;;;;13.92;49.41;99331.31;5051962;28;20060;-84
2021/03/26 10:39:43;;;;;;;13.48;7.07;;;;;;;13.78;48.00;99336.72;5039533;28;20299;-84
2021/03/26 10:42:16;;;;;;;16.05;6.97;;;;;;;13.99;47.80;99316.63;5048389;28;20406;-84
2021/03/26 10:45:04;;;;;;;15.75;7.53;;;;;;;14.30;47.01;99326.25;5046076;28;20049;-85
2021/03/26 10:47:43;;;;;;;13.70;7.35;;;;;;;14.36;48.16;99304.56;5045664;28;20048;-84
2021/03/26 10:50:28;;;;;;;13.73;7.13;;;;;;;14.44;46.54;99315.34;5048740;28;20056;-82
2021/03/26 10:53:07;;;;;;;13.70;6.63;;;;;;;14.55;46.69;99309.25;5054318;28;20134;-85
2021/03/26 10:55:49;;;;;;;18.38;6.55;;;;;;;14.65;47.26;99300.69;5054274;28;20045;-86
2021/03/26 10:58:26;;;;;;;14.38;7.63;;;;;;;14.65;46.13;99315.19;5054018;28;20068;-86
2021/03/26 11:01:04;;;;;;;13.65;6.80;;;;;;;14.48;45.27;99291.97;5053478;28;20068;-86
2021/03/26 11:03:37;;;;;;;17.30;7.38;;;;;;;14.45;45.14;99306.94;5051936;28;20115;-85
2021/03/26 11:06:18;;;;;;;16.05;8.10;;;;;;;14.58;47.19;99294.31;5050113;28;20048;-86
2021/03/26 11:08:53;;;;;;;13.57;7.07;;;;;;;14.78;46.00;99295.19;5051666;28;20173;-86
2021/03/26 11:11:32;;;;;;;17.13;7.90;;;;;;;14.90;46.34;99291.84;5051075;28;20531;-86
2021/03/26 11:14:37;;;;;;;15.80;7.43;;;;;;;14.92;45.18;99278.78;5043396;28;20053;-86
2021/03/26 11:17:12;;;;;;;14.27;7.93;;;;;;;14.80;45.09;99265.75;5041726;28;20053;-86
2021/03/26 11:19:46;;;;;;;13.88;7.75;;;;;;;14.94;45.33;99271.22;5050542;28;20094;-86
2021/03/26 11:22:23;;;;;;;14.38;7.10;;;;;;;15.08;44.24;99274.78;5051079;28;20477;-86
2021/03/26 11:25:01;;;;;;;16.17;8.27;;;;;;;15.02;44.64;99269.13;5051142;28;20045;-86
2021/03/26 11:27:35;;;;;;;18.85;8.18;;;;;;;15.23;44.52;99261.72;5051193;28;20072;-86
2021/03/26 11:30:22;;;;;;;20.05;10.73;;;;;;;15.35;43.69;99281.09;5051025;28;20053;-85
2021/03/26 11:32:56;;;;;;;15.77;7.05;;;;;;;15.34;44.09;99266.56;5051129;28;20052;-87
2021/03/26 11:35:27;;;;;;;14.98;7.32;;;;;;;15.71;44.08;99274.25;5051723;28;20061;-86
2021/03/26 11:37:59;;;;;;;12.32;6.72;;;;;;;15.71;42.36;99239.47;5050702;28;20438;-86
2021/03/26 11:40:30;;;;;;;12.95;6.65;;;;;;;15.71;41.77;99244.94;5051593;28;20053;-86
2021/03/26 11:43:10;;;;;;;15.15;7.40;;;;;;;15.85;43.78;99247.66;5051081;28;20485;-86
2021/03/26 11:45:44;;;;;;;;;;;;;;;15.87;41.90;99240.09;5031175;28;20049;-86
2021/03/26 11:48:18;;;;;;;19.75;6.50;;;;;;;15.89;41.11;99229.72;5032964;28;19983;-87
2021/03/26 11:50:56;;;;;;;14.95;7.30;;;;;;;15.81;40.69;99208.06;5051770;28;20049;-86
2021/03/26 11:53:32;;;;;;;19.58;7.78;;;;;;;15.71;40.92;99211.22;5051437;28;20052;-86
2021/03/26 11:56:09;;;;;;;12.90;5.82;;;;;;;15.98;42.03;99209.22;5050470;28;20052;-86
2021/03/26 11:58:47;;;;;;;17.02;6.90;;;;;;;16.18;42.12;99200.03;5051494;28;20504;-86
2021/03/26 12:01:19;;;;;;;11.90;7.05;;;;;;;16.41;40.54;99210.44;5051234;28;20053;-86
2021/03/26 12:04:00;;;;;;;16.85;7.40;;;;;;;16.52;41.35;99206.97;5051299;28;20409;-86
2021/03/26 12:06:35;;;;;;;13.13;6.32;;;;;;;16.44;40.00;99218.25;5049519;28;20190;-86
2021/03/26 12:09:12;;;;;;;17.70;7.43;;;;;;;16.54;40.03;99193.88;5051447;28;20044;-86
2021/03/26 12:12:01;;;;;;;17.38;6.85;;;;;;;16.39;39.35;99179.63;5045742;28;20538;-86
2021/03/26 12:14:32;;;;;;;12.82;6.50;;;;;;;16.67;40.31;99184.69;5050523;28;20064;-86
2021/03/26 12:17:04;;;;;;;15.65;7.88;;;;;;;16.81;41.92;99207.38;5050655;28;20463;-86
2021/03/26 12:19:33;;;;;;;15.98;7.20;;;;;;;16.84;39.58;99182.22;5051021;28;20167;-85
2021/03/26 12:22:05;;;;;;;20.40;7.97;;;;;;;16.79;38.49;99188.38;5050499;28;20132;-86
2021/03/26 12:24:39;;;;;;;10.15;6.30;;;;;;;16.60;39.00;99164.69;5050270;28;20393;-86
2021/03/26 12:27:28;;;;;;;15.13;6.18;;;;;;;16.74;37.46;99181.88;5051128;28;20057;-86
2021/03/26 12:33:14;;;;;;;13.52;6.82;;;;;;;16.61;38.67;99174.63;5031863;28;20296;-86
2021/03/26 12:35:49;;;;;;;10.50;6.55;;;;;;;16.58;38.12;99147.63;5042890;28;20102;-85
2021/03/26 12:38:29;;;;;;;12.52;5.32;;;;;;;16.93;36.66;99142.44;5054589;28;20052;-85
2021/03/26 12:41:02;;;;;;;;;;;;;;;17.30;36.99;99167.19;5054308;28;20041;-85
2021/03/26 12:43:39;;;;;;;13.90;5.78;;;;;;;17.36;35.33;99153.59;5055019;28;19921;-85
2021/03/26 12:46:15;;;;;;;13.35;5.43;;;;;;;17.32;35.66;99145.81;5053724;28;20503;-86
2021/03/26 12:48:45;;;;;;;12.60;5.57;;;;;;;17.14;37.68;99134.84;5054407;28;20554;-86
2021/03/26 12:51:23;;;;;;;8.40;4.18;;;;;;;17.05;37.16;99120.56;5054275;28;20079;-86